createdAt,value
2022-08-19T00:00:12.011Z,9.20
2022-08-19T00:03:00.099Z,8.90
2022-08-19T00:05:28.503Z,9.10
2022-08-19T00:07:56.503Z,9.30
2022-08-19T00:10:25.555Z,10.00
2022-08-19T00:12:53.806Z,10.90
2022-08-19T00:15:23.055Z,9.90
2022-08-19T00:17:52.114Z,9.40
2022-08-19T00:20:22.263Z,9.00
2022-08-19T00:22:51.163Z,10.00
2022-08-19T00:25:30.636Z,9.20
2022-08-19T00:28:00.126Z,9.80
2022-08-19T00:30:31.323Z,9.70
2022-08-19T00:33:00.303Z,8.90
2022-08-19T00:35:29.045Z,10.70
2022-08-19T00:37:58.271Z,11.10
2022-08-19T00:40:26.847Z,10.00
2022-08-19T00:42:54.995Z,10.00
2022-08-19T00:45:27.072Z,9.70
2022-08-19T00:47:55.141Z,9.10
2022-08-19T00:50:25.478Z,9.00
2022-08-19T00:52:54.391Z,9.70
2022-08-19T00:55:26.343Z,9.30
2022-08-19T00:57:57.408Z,9.20
2022-08-19T01:00:27.955Z,10.00
2022-08-19T01:02:56.058Z,10.10
2022-08-19T01:05:30.266Z,9.90
2022-08-19T01:08:01.762Z,9.80
2022-08-19T01:10:36.903Z,10.20
2022-08-19T01:13:06.059Z,10.20
2022-08-19T01:15:41.194Z,10.00
2022-08-19T01:18:13.283Z,9.40
2022-08-19T01:20:42.517Z,9.40
2022-08-19T01:23:10.731Z,10.20
2022-08-19T01:25:53.109Z,10.20
2022-08-19T01:28:34.224Z,10.70
2022-08-19T01:31:26.367Z,10.90
2022-08-19T01:34:00.814Z,9.00
2022-08-19T01:36:38.327Z,10.10
2022-08-19T01:39:10.599Z,10.00
2022-08-19T01:41:38.876Z,9.90
2022-08-19T01:44:17.433Z,9.70
2022-08-19T01:46:49.492Z,9.20
2022-08-19T01:49:20.286Z,9.80
2022-08-19T01:51:50.628Z,9.60
2022-08-19T01:54:22.895Z,9.40
2022-08-19T01:57:02.076Z,9.30
2022-08-19T01:59:32.148Z,9.70
2022-08-19T02:02:00.166Z,9.20
2022-08-19T02:04:28.280Z,10.40
2022-08-19T02:06:56.307Z,9.80
2022-08-19T02:09:24.395Z,10.10
2022-08-19T02:11:52.843Z,10.00
2022-08-19T02:14:20.842Z,9.50
2022-08-19T02:16:49.371Z,9.70
2022-08-19T02:19:18.046Z,9.50
2022-08-19T02:21:46.246Z,10.00
2022-08-19T02:24:14.847Z,10.00
2022-08-19T02:26:42.849Z,9.70
2022-08-19T02:29:11.922Z,9.80
2022-08-19T02:31:39.945Z,9.90
2022-08-19T02:34:07.973Z,10.20
2022-08-19T02:36:36.254Z,9.40
2022-08-19T02:39:11.429Z,10.10
2022-08-19T02:41:40.312Z,10.70
2022-08-19T02:44:29.421Z,9.90
2022-08-19T02:46:56.574Z,9.20
2022-08-19T02:49:24.674Z,9.20
2022-08-19T02:51:52.739Z,9.40
2022-08-19T02:54:20.839Z,9.90
2022-08-19T02:56:48.896Z,10.10
2022-08-19T02:59:16.889Z,10.50
2022-08-19T03:01:44.953Z,10.40
2022-08-19T03:04:17.219Z,9.70
2022-08-19T03:06:47.381Z,10.00
2022-08-19T03:09:16.505Z,9.20
2022-08-19T03:11:44.775Z,10.30
2022-08-19T03:14:14.109Z,9.90
2022-08-19T03:16:48.878Z,9.30
2022-08-19T03:19:19.559Z,9.30
2022-08-19T03:21:48.551Z,9.10
2022-08-19T03:24:18.370Z,9.20
2022-08-19T03:26:52.474Z,9.20
2022-08-19T03:29:30.841Z,9.80
2022-08-19T03:32:02.143Z,10.10
2022-08-19T03:34:35.387Z,9.50
2022-08-19T03:37:10.434Z,9.70
2022-08-19T03:42:32.651Z,9.90
2022-08-19T03:44:55.468Z,10.60
2022-08-19T03:47:23.583Z,11.40
2022-08-19T03:49:51.641Z,10.50
2022-08-19T03:52:19.668Z,9.90
2022-08-19T03:54:47.688Z,9.20
2022-08-19T03:57:15.692Z,8.90
2022-08-19T03:59:44.584Z,9.60
2022-08-19T04:02:14.003Z,9.00
2022-08-19T04:04:44.913Z,9.80
2022-08-19T04:07:17.321Z,9.50
2022-08-19T04:09:45.656Z,10.00
2022-08-19T04:12:13.717Z,10.00
2022-08-19T04:14:42.288Z,10.60
2022-08-19T04:17:10.312Z,10.70
2022-08-19T04:19:40.705Z,9.80
2022-08-19T04:22:08.904Z,10.10
2022-08-19T04:24:37.014Z,9.30
2022-08-19T04:27:07.220Z,9.70
2022-08-19T04:29:35.482Z,9.40
2022-08-19T04:32:09.430Z,9.70
2022-08-19T04:35:01.244Z,10.40
2022-08-19T04:37:35.421Z,11.00
2022-08-19T04:40:27.875Z,10.40
2022-08-19T04:42:56.138Z,9.60
2022-08-19T04:45:27.619Z,9.30
2022-08-19T04:47:58.161Z,9.40
2022-08-19T04:50:45.937Z,11.30
2022-08-19T04:53:14.008Z,11.50
2022-08-19T04:55:43.517Z,10.90
2022-08-19T04:58:11.804Z,10.40
2022-08-19T05:00:41.237Z,10.40
2022-08-19T05:03:09.596Z,11.10
2022-08-19T05:05:44.613Z,10.10
2022-08-19T05:08:15.312Z,11.00
2022-08-19T05:10:43.849Z,11.20
2022-08-19T05:13:12.027Z,11.20
2022-08-19T05:15:40.098Z,10.60
2022-08-19T05:18:26.810Z,11.10
2022-08-19T05:21:13.260Z,9.80
2022-08-19T05:23:42.192Z,9.50
2022-08-19T05:26:12.075Z,8.90
2022-08-19T05:28:40.188Z,10.00
2022-08-19T05:31:08.678Z,9.90
2022-08-19T05:33:37.012Z,11.30
2022-08-19T05:36:09.947Z,11.10
2022-08-19T05:38:39.470Z,10.60
2022-08-19T05:41:12.263Z,10.90
2022-08-19T05:43:41.397Z,10.50
2022-08-19T05:46:17.029Z,10.50
2022-08-19T05:48:45.606Z,10.30
2022-08-19T05:51:14.305Z,9.20
2022-08-19T05:53:46.778Z,10.20
2022-08-19T05:56:19.535Z,10.90
2022-08-19T05:58:47.636Z,10.60
2022-08-19T06:01:18.388Z,10.90
2022-08-19T06:03:47.179Z,11.10
2022-08-19T06:06:17.384Z,17.50
2022-08-19T06:08:51.742Z,12.30
2022-08-19T06:11:26.558Z,11.10
2022-08-19T06:14:01.506Z,12.50
2022-08-19T06:16:31.353Z,12.20
2022-08-19T06:19:02.043Z,11.70
2022-08-19T06:21:31.444Z,11.60
2022-08-19T06:24:00.442Z,12.90
2022-08-19T06:26:30.516Z,12.60
2022-08-19T06:28:58.852Z,13.70
2022-08-19T06:31:29.468Z,14.30
2022-08-19T06:33:57.511Z,13.00
2022-08-19T06:36:34.841Z,13.70
2022-08-19T06:39:06.980Z,12.90
2022-08-19T06:41:48.806Z,12.60
2022-08-19T06:44:21.751Z,13.40
2022-08-19T06:46:53.547Z,12.40
2022-08-19T06:49:24.211Z,12.20
2022-08-19T06:51:52.669Z,11.00
2022-08-19T06:54:21.960Z,12.80
2022-08-19T06:56:51.689Z,12.20
2022-08-19T06:59:23.851Z,12.80
2022-08-19T07:01:55.332Z,12.60
2022-08-19T07:04:26.626Z,12.50
2022-08-19T07:07:00.967Z,12.50
2022-08-19T07:09:58.555Z,12.40
2022-08-19T07:12:36.129Z,12.30
2022-08-19T07:15:09.616Z,11.30
2022-08-19T07:17:41.918Z,11.40
2022-08-19T07:20:11.793Z,11.90
2022-08-19T07:22:41.365Z,10.60
2022-08-19T07:25:11.038Z,10.60
2022-08-19T07:27:46.343Z,9.60
2022-08-19T07:30:14.918Z,9.80
2022-08-19T07:32:43.546Z,10.80
2022-08-19T07:35:12.816Z,10.10
2022-08-19T07:37:45.254Z,10.70
2022-08-19T07:40:14.950Z,11.70
2022-08-19T07:42:45.275Z,10.10
2022-08-19T07:45:13.736Z,10.60
2022-08-19T07:47:49.242Z,10.80
2022-08-19T07:50:21.325Z,10.30
2022-08-19T07:52:50.908Z,10.50
2022-08-19T07:55:42.453Z,9.50
2022-08-19T07:58:16.077Z,9.60
2022-08-19T08:00:48.379Z,13.00
2022-08-19T08:03:19.604Z,9.00
2022-08-19T08:06:08.859Z,8.70
2022-08-19T08:08:48.154Z,8.70
2022-08-19T08:11:21.325Z,8.00
2022-08-19T08:14:00.868Z,8.10
2022-08-19T08:16:46.747Z,8.20
2022-08-19T08:19:20.639Z,8.50
2022-08-19T08:21:56.984Z,7.60
2022-08-19T08:24:28.614Z,7.60
2022-08-19T08:26:59.723Z,6.80
2022-08-19T08:29:34.574Z,7.60
2022-08-19T08:32:14.129Z,7.90
2022-08-19T08:34:43.779Z,7.30
2022-08-19T08:37:11.955Z,6.90
2022-08-19T08:39:43.274Z,7.20
2022-08-19T08:42:27.910Z,6.90
2022-08-19T08:47:33.968Z,7.50
2022-08-19T08:50:22.406Z,6.80
2022-08-19T08:52:58.015Z,6.00
2022-08-19T08:55:36.929Z,5.70
2022-08-19T08:58:22.071Z,6.80
2022-08-19T09:00:51.068Z,8.80
2022-08-19T09:03:23.482Z,5.70
2022-08-19T09:06:44.701Z,5.40
2022-08-19T09:09:45.471Z,5.50
2022-08-19T09:12:26.891Z,6.40
2022-08-19T09:15:01.559Z,6.00
2022-08-19T09:17:39.697Z,6.20
2022-08-19T09:20:20.723Z,6.00
2022-08-19T09:22:50.392Z,6.00
2022-08-19T09:25:26.993Z,7.40
2022-08-19T09:28:02.277Z,6.80
2022-08-19T09:30:40.637Z,10.00
2022-08-19T09:33:10.445Z,5.90
2022-08-19T09:35:50.166Z,5.60
2022-08-19T09:38:22.650Z,5.20
2022-08-19T09:40:51.000Z,4.70
2022-08-19T09:43:32.566Z,5.10
2022-08-19T09:46:07.660Z,6.80
2022-08-19T09:48:42.142Z,4.50
2022-08-19T09:51:17.256Z,4.80
2022-08-19T09:53:46.779Z,4.80
2022-08-19T09:56:15.188Z,4.80
2022-08-19T09:58:43.837Z,5.30
2022-08-19T10:01:18.322Z,5.20
2022-08-19T10:03:53.746Z,4.60
2022-08-19T10:06:46.755Z,4.70
2022-08-19T10:09:18.415Z,5.30
2022-08-19T10:12:06.174Z,5.20
2022-08-19T10:14:36.633Z,6.90
2022-08-19T10:17:17.673Z,8.30
2022-08-19T10:19:55.187Z,4.70
2022-08-19T10:22:25.691Z,4.80
2022-08-19T10:24:56.910Z,5.30
2022-08-19T10:27:26.505Z,6.00
2022-08-19T10:29:54.971Z,4.70
2022-08-19T10:32:33.873Z,4.80
2022-08-19T10:35:09.137Z,4.30
2022-08-19T10:37:47.800Z,5.30
2022-08-19T10:40:29.556Z,5.40
2022-08-19T10:42:57.879Z,5.80
2022-08-19T10:45:29.929Z,4.40
2022-08-19T10:48:07.202Z,4.10
2022-08-19T10:50:58.590Z,5.80
2022-08-19T10:53:27.281Z,3.70
2022-08-19T10:56:17.599Z,3.60
2022-08-19T10:58:45.956Z,4.80
2022-08-19T11:01:17.508Z,4.00
2022-08-19T11:03:46.482Z,3.50
2022-08-19T11:06:15.096Z,4.10
2022-08-19T11:08:46.486Z,4.20
2022-08-19T11:11:15.819Z,4.40
2022-08-19T11:13:47.033Z,4.10
2022-08-19T11:16:18.636Z,4.80
2022-08-19T11:18:52.282Z,4.30
2022-08-19T11:21:26.921Z,4.60
2022-08-19T11:23:58.003Z,4.10
2022-08-19T11:26:26.860Z,4.40
2022-08-19T11:28:56.726Z,3.90
2022-08-19T11:31:32.300Z,3.30
2022-08-19T11:34:04.345Z,4.00
2022-08-19T11:36:36.232Z,4.10
2022-08-19T11:39:07.760Z,3.10
2022-08-19T11:41:36.485Z,3.80
2022-08-19T11:44:05.806Z,4.00
2022-08-19T11:46:35.904Z,4.40
2022-08-19T11:49:13.880Z,3.90
2022-08-19T11:51:46.984Z,3.90
2022-08-19T11:54:17.850Z,3.20
2022-08-19T11:56:48.538Z,3.50
2022-08-19T11:59:17.256Z,2.80
2022-08-19T12:01:45.601Z,3.20
2022-08-19T12:04:14.442Z,2.80
2022-08-19T12:06:42.815Z,3.00
2022-08-19T12:09:12.455Z,3.30
2022-08-19T12:11:42.732Z,3.50
2022-08-19T12:14:15.285Z,3.20
2022-08-19T12:16:49.235Z,3.40
2022-08-19T12:19:22.233Z,3.40
2022-08-19T12:21:52.024Z,3.90
2022-08-19T12:24:24.525Z,3.60
2022-08-19T12:26:55.034Z,3.30
2022-08-19T12:29:30.712Z,6.70
2022-08-19T12:32:05.775Z,3.70
2022-08-19T12:34:40.620Z,3.80
2022-08-19T12:37:09.149Z,3.70
2022-08-19T12:39:41.513Z,3.60
2022-08-19T12:42:11.867Z,3.70
2022-08-19T12:44:42.708Z,9.40
2022-08-19T12:47:14.464Z,4.10
2022-08-19T12:49:53.387Z,4.30
2022-08-19T12:52:28.352Z,7.00
2022-08-19T12:54:58.494Z,3.70
2022-08-19T12:57:32.338Z,5.90
2022-08-19T13:02:38.961Z,2.80
2022-08-19T13:05:12.900Z,4.80
2022-08-19T13:07:42.056Z,3.10
2022-08-19T13:10:21.411Z,3.40
2022-08-19T13:12:52.427Z,3.80
2022-08-19T13:15:24.152Z,3.20
2022-08-19T13:17:54.925Z,3.10
2022-08-19T13:20:24.059Z,3.00
2022-08-19T13:22:52.763Z,2.90
2022-08-19T13:25:21.982Z,2.90
2022-08-19T13:27:51.873Z,3.10
2022-08-19T13:30:39.491Z,3.10
2022-08-19T13:33:11.962Z,3.30
2022-08-19T13:35:43.677Z,3.60
2022-08-19T13:38:12.578Z,3.00
2022-08-19T13:40:51.219Z,3.40
2022-08-19T13:43:33.979Z,3.20
2022-08-19T13:46:14.444Z,2.50
2022-08-19T13:48:45.898Z,2.90
2022-08-19T13:51:14.376Z,2.70
2022-08-19T13:53:48.134Z,3.00
2022-08-19T13:56:26.310Z,2.80
2022-08-19T13:58:54.819Z,2.80
2022-08-19T14:01:28.505Z,2.60
2022-08-19T14:03:56.725Z,3.00
2022-08-19T14:06:26.424Z,2.90
2022-08-19T14:08:54.949Z,2.50
2022-08-19T14:11:24.396Z,3.10
2022-08-19T14:13:52.727Z,3.70
2022-08-19T14:16:22.751Z,3.50
2022-08-19T14:18:53.372Z,3.40
2022-08-19T14:21:23.670Z,3.10
2022-08-19T14:23:52.913Z,3.50
2022-08-19T14:26:23.454Z,2.90
2022-08-19T14:28:53.861Z,2.70
2022-08-19T14:31:28.975Z,2.50
2022-08-19T14:33:59.491Z,2.40
2022-08-19T14:36:29.272Z,3.20
2022-08-19T14:38:58.898Z,3.10
2022-08-19T14:41:27.513Z,3.30
2022-08-19T14:43:57.285Z,4.10
2022-08-19T14:46:28.264Z,2.60
2022-08-19T14:48:59.980Z,3.60
2022-08-19T14:51:28.760Z,3.10
2022-08-19T14:53:57.227Z,2.80
2022-08-19T14:56:28.825Z,2.80
2022-08-19T14:59:00.442Z,3.40
2022-08-19T15:01:29.331Z,3.30
2022-08-19T15:03:57.699Z,2.80
2022-08-19T15:06:30.203Z,2.70
2022-08-19T15:09:04.334Z,3.00
2022-08-19T15:11:34.073Z,2.90
2022-08-19T15:14:03.336Z,3.00
2022-08-19T15:16:31.426Z,3.00
2022-08-19T15:19:01.035Z,3.10
2022-08-19T15:21:30.668Z,2.70
2022-08-19T15:23:59.776Z,2.50
2022-08-19T15:26:32.491Z,3.00
2022-08-19T15:29:02.380Z,2.90
2022-08-19T15:31:38.244Z,3.10
2022-08-19T15:34:08.238Z,3.10
2022-08-19T15:36:38.897Z,2.90
2022-08-19T15:39:07.527Z,3.80
2022-08-19T15:41:37.152Z,3.20
2022-08-19T15:44:12.358Z,3.50
2022-08-19T15:46:44.262Z,3.10
2022-08-19T15:49:15.706Z,3.30
2022-08-19T15:51:46.903Z,2.70
2022-08-19T15:54:21.554Z,3.00
2022-08-19T15:57:10.028Z,2.70
2022-08-19T15:59:58.041Z,3.90
2022-08-19T16:02:53.610Z,3.30
2022-08-19T16:05:44.590Z,3.20
2022-08-19T16:08:13.256Z,4.00
2022-08-19T16:10:43.093Z,3.50
2022-08-19T16:13:11.296Z,2.70
2022-08-19T16:15:42.191Z,2.50
2022-08-19T16:18:10.511Z,3.50
2022-08-19T16:20:38.915Z,3.10
2022-08-19T16:23:09.166Z,3.00
2022-08-19T16:25:39.492Z,3.10
2022-08-19T16:28:10.048Z,2.80
2022-08-19T16:30:41.032Z,3.20
2022-08-19T16:33:10.786Z,4.70
2022-08-19T16:35:39.128Z,4.80
2022-08-19T16:38:07.304Z,4.20
2022-08-19T16:40:37.942Z,3.80
2022-08-19T16:43:05.979Z,4.00
2022-08-19T16:45:34.120Z,4.10
2022-08-19T16:48:04.237Z,3.70
2022-08-19T16:50:48.638Z,4.50
2022-08-19T16:53:21.313Z,4.90
2022-08-19T16:55:51.108Z,4.80
2022-08-19T16:58:20.661Z,4.60
2022-08-19T17:01:03.291Z,4.80
2022-08-19T17:03:36.959Z,4.40
2022-08-19T17:06:18.930Z,5.70
2022-08-19T17:08:54.362Z,5.70
2022-08-19T17:11:24.556Z,5.80
2022-08-19T17:13:54.690Z,4.60
2022-08-19T17:16:25.812Z,5.60
2022-08-19T17:18:58.799Z,5.20
2022-08-19T17:21:32.348Z,7.20
2022-08-19T17:24:02.531Z,5.60
2022-08-19T17:26:31.454Z,4.70
2022-08-19T17:29:00.536Z,6.00
2022-08-19T17:31:30.819Z,9.90
2022-08-19T17:34:00.360Z,5.60
2022-08-19T17:36:31.316Z,10.60
2022-08-19T17:39:05.030Z,5.70
2022-08-19T17:41:34.444Z,5.40
2022-08-19T17:44:03.671Z,5.10
2022-08-19T17:46:32.750Z,5.50
2022-08-19T17:49:00.977Z,6.30
2022-08-19T17:51:35.127Z,6.40
2022-08-19T17:54:06.635Z,5.50
2022-08-19T17:56:34.778Z,5.10
2022-08-19T17:59:02.890Z,5.10
2022-08-19T18:01:52.521Z,4.60
2022-08-19T18:04:25.285Z,6.10
2022-08-19T18:06:55.615Z,6.40
2022-08-19T18:09:41.209Z,5.90
2022-08-19T18:12:13.566Z,6.10
2022-08-19T18:14:42.311Z,9.50
2022-08-19T18:17:13.347Z,10.50
2022-08-19T18:19:44.212Z,10.20
2022-08-19T18:22:30.180Z,9.10
2022-08-19T18:24:59.857Z,7.70
2022-08-19T18:27:29.399Z,6.30
2022-08-19T18:29:59.452Z,6.00
2022-08-19T18:32:34.308Z,5.80
2022-08-19T18:35:18.624Z,6.00
2022-08-19T18:37:46.871Z,6.20
2022-08-19T18:40:39.132Z,8.20
2022-08-19T18:43:27.390Z,9.40
2022-08-19T18:46:27.841Z,7.70
2022-08-19T18:49:05.227Z,7.50
2022-08-19T18:51:34.597Z,8.20
2022-08-19T18:54:03.280Z,9.00
2022-08-19T18:56:37.517Z,8.20
2022-08-19T18:59:09.774Z,8.30
2022-08-19T19:01:40.803Z,7.10
2022-08-19T19:04:13.915Z,7.00
2022-08-19T19:06:43.473Z,6.60
2022-08-19T19:09:15.557Z,7.00
2022-08-19T19:11:48.428Z,6.40
2022-08-19T19:14:45.546Z,5.80
2022-08-19T19:17:14.374Z,5.80
2022-08-19T19:19:44.077Z,6.20
2022-08-19T19:22:17.287Z,6.10
2022-08-19T19:24:45.545Z,6.40
2022-08-19T19:27:15.565Z,6.60
2022-08-19T19:29:47.401Z,6.20
2022-08-19T19:32:26.942Z,6.50
2022-08-19T19:34:55.447Z,6.80
2022-08-19T19:37:23.637Z,6.40
2022-08-19T19:39:52.698Z,7.00
2022-08-19T19:42:23.975Z,7.30
2022-08-19T19:44:56.247Z,7.40
2022-08-19T19:47:29.126Z,7.10
2022-08-19T19:50:13.650Z,7.70
2022-08-19T19:52:46.378Z,8.00
2022-08-19T19:55:18.607Z,7.70
2022-08-19T19:57:49.236Z,7.40
2022-08-19T20:00:19.193Z,7.10
2022-08-19T20:02:50.413Z,7.20
2022-08-19T20:05:23.598Z,7.00
2022-08-19T20:08:12.197Z,7.00
2022-08-19T20:10:43.065Z,6.70
2022-08-19T20:13:15.677Z,6.60
2022-08-19T20:15:44.230Z,7.10
2022-08-19T20:18:16.378Z,6.70
2022-08-19T20:20:47.126Z,7.10
2022-08-19T20:23:15.325Z,6.70
2022-08-19T20:25:43.643Z,6.90
2022-08-19T20:28:13.179Z,7.40
2022-08-19T20:30:44.939Z,6.40
2022-08-19T20:33:14.954Z,6.10
2022-08-19T20:35:43.686Z,6.80
2022-08-19T20:38:12.524Z,6.40
2022-08-19T20:40:41.441Z,6.80
2022-08-19T20:43:11.952Z,5.90
2022-08-19T20:45:40.847Z,6.40
2022-08-19T20:48:10.616Z,6.60
2022-08-19T20:50:39.257Z,6.20
2022-08-19T20:53:16.255Z,7.00
2022-08-19T20:55:46.313Z,6.40
2022-08-19T20:58:14.845Z,6.90
2022-08-19T21:00:46.264Z,6.40
2022-08-19T21:03:21.331Z,6.70
2022-08-19T21:08:21.010Z,6.90
2022-08-19T21:10:51.056Z,7.10
2022-08-19T21:13:20.597Z,7.00
2022-08-19T21:15:50.674Z,7.60
2022-08-19T21:18:20.991Z,7.30
2022-08-19T21:20:50.491Z,7.40
2022-08-19T21:23:28.581Z,7.20
2022-08-19T21:25:59.723Z,7.30
2022-08-19T21:28:29.864Z,6.80
2022-08-19T21:31:06.863Z,7.10
2022-08-19T21:33:35.059Z,7.00
2022-08-19T21:36:04.485Z,7.10
2022-08-19T21:38:33.135Z,7.40
2022-08-19T21:41:05.734Z,6.90
2022-08-19T21:43:37.768Z,7.30
2022-08-19T21:46:06.462Z,7.30
2022-08-19T21:48:34.849Z,7.30
2022-08-19T21:51:03.221Z,7.40
2022-08-19T21:53:34.525Z,7.60
2022-08-19T21:56:06.429Z,7.70
2022-08-19T21:58:39.030Z,7.70
2022-08-19T22:01:08.127Z,7.50
2022-08-19T22:03:38.827Z,7.10
2022-08-19T22:06:08.531Z,7.10
2022-08-19T22:08:36.916Z,7.30
2022-08-19T22:11:05.227Z,6.90
2022-08-19T22:13:40.507Z,7.60
2022-08-19T22:16:12.636Z,7.80
2022-08-19T22:18:40.852Z,7.50
2022-08-19T22:21:11.886Z,7.00
2022-08-19T22:23:42.496Z,6.60
2022-08-19T22:26:12.211Z,7.00
2022-08-19T22:28:44.276Z,7.70
2022-08-19T22:31:12.934Z,7.10
2022-08-19T22:33:41.684Z,7.50
2022-08-19T22:36:09.784Z,7.20
2022-08-19T22:38:38.513Z,7.70
2022-08-19T22:41:08.044Z,7.50
2022-08-19T22:43:37.699Z,7.10
2022-08-19T22:46:15.047Z,7.30
2022-08-19T22:48:47.786Z,6.50
2022-08-19T22:51:38.281Z,6.70
2022-08-19T22:54:06.322Z,7.20
2022-08-19T22:56:35.762Z,7.00
2022-08-19T22:59:04.234Z,7.30
2022-08-19T23:01:32.334Z,7.60
2022-08-19T23:04:03.728Z,7.60
2022-08-19T23:06:35.045Z,8.00
2022-08-19T23:09:07.280Z,6.90
2022-08-19T23:11:41.895Z,7.40
2022-08-19T23:16:41.709Z,7.70
2022-08-19T23:19:10.850Z,7.50
2022-08-19T23:21:43.744Z,7.80
2022-08-19T23:24:12.445Z,7.80
2022-08-19T23:27:01.752Z,7.70
2022-08-19T23:29:48.914Z,7.50
2022-08-19T23:32:19.804Z,7.20
2022-08-19T23:34:48.342Z,8.00
2022-08-19T23:37:16.430Z,7.50
2022-08-19T23:39:45.430Z,7.50
2022-08-19T23:42:15.079Z,6.90
2022-08-19T23:44:51.285Z,7.50
2022-08-19T23:47:23.630Z,8.00
2022-08-19T23:49:51.973Z,7.80
2022-08-19T23:52:20.195Z,8.20
2022-08-19T23:54:48.243Z,7.50
2022-08-19T23:57:16.976Z,7.60
2022-08-19T23:59:45.753Z,7.40
